Time;durP1;ratioP1;P1;durP2;ratioP2;P2;SDS_P1;SDS_P2;PMS_P1;PMS_P2;Temp;Humidity;BMP_temperature;BMP_pressure;BME280_temperature;BME280_humidity;BME280_pressure;Samples;Min_cycle;Max_cycle;Signal;HPM_P1;HPM_P2
2023/06/16 00:01:03;;;;;;;;;;;16.90;78.80;;;;;;5113163;28;19943;-44
2023/06/16 00:03:33;;;;;;;;;;;16.90;78.80;;;;;;5113394;28;19916;-44
2023/06/16 00:06:03;;;;;;;;;;;16.80;79.30;;;;;;5113706;28;19955;-46
2023/06/16 00:08:30;;;;;;;;;;;16.80;79.90;;;;;;5113044;28;19908;-46
2023/06/16 00:10:56;;;;;;;;;;;16.80;79.40;;;;;;5113734;28;19908;-46
2023/06/16 00:13:21;;;;;;;;;;;16.70;79.90;;;;;;5113409;28;19912;-44
2023/06/16 00:15:47;;;;;;;;;;;16.70;80.60;;;;;;5112886;28;19907;-44
2023/06/16 00:18:12;;;;;;;;;;;16.70;80.50;;;;;;5113815;28;20326;-46
2023/06/16 00:20:38;;;;;;;;;;;16.60;80.60;;;;;;5111366;28;19915;-48
2023/06/16 00:23:06;;;;;;;;;;;16.60;81.50;;;;;;5105272;28;19916;-45
2023/06/16 00:25:32;;;;;;;;;;;16.50;80.70;;;;;;5098612;28;19966;-48
2023/06/16 00:27:57;;;;;;;;;;;16.50;80.80;;;;;;5113228;28;19912;-45
2023/06/16 00:30:23;;;;;;;;;;;16.50;81.10;;;;;;5110422;28;20430;-45
2023/06/16 00:32:48;;;;;;;;;;;16.40;81.80;;;;;;5092995;28;20518;-46
2023/06/16 00:35:14;;;;;;;;;;;16.40;81.90;;;;;;5092233;28;19908;-44
2023/06/16 00:37:39;;;;;;;;;;;16.40;82.30;;;;;;5092765;28;20065;-44
2023/06/16 00:40:05;;;;;;;;;;;16.30;82.30;;;;;;5093122;28;19908;-43
2023/06/16 00:42:31;;;;;;;;;;;16.30;82.60;;;;;;5092041;28;19916;-44
2023/06/16 00:44:56;;;;;;;;;;;16.20;82.80;;;;;;5092813;28;19912;-45
2023/06/16 00:47:22;;;;;;;;;;;16.20;82.50;;;;;;5106974;28;19912;-45
2023/06/16 00:49:47;;;;;;;;;;;16.10;83.00;;;;;;5112326;28;19915;-44
2023/06/16 00:52:14;;;;;;;;;;;16.00;82.50;;;;;;5106352;28;20375;-45
2023/06/16 00:54:40;;;;;;;;;;;15.90;82.30;;;;;;5113206;28;19963;-44
2023/06/16 00:57:06;;;;;;;;;;;15.80;84.10;;;;;;5111933;28;19957;-45
2023/06/16 00:59:32;;;;;;;;;;;15.70;84.50;;;;;;5112934;28;19951;-45
2023/06/16 01:01:58;;;;;;;;;;;15.70;85.20;;;;;;5113120;28;19942;-43
2023/06/16 01:04:23;;;;;;;;;;;15.70;85.30;;;;;;5112324;28;19908;-43
2023/06/16 01:06:58;;;;;;;;;;;15.60;85.50;;;;;;5112606;28;19915;-43
2023/06/16 01:09:29;;;;;;;;;;;15.60;86.20;;;;;;5112965;28;19912;-46
2023/06/16 01:12:03;;;;;;;;;;;15.60;87.20;;;;;;5112151;28;19908;-45
2023/06/16 01:14:37;;;;;;;;;;;15.50;86.50;;;;;;5112891;28;19908;-45
2023/06/16 01:17:05;;;;;;;;;;;15.50;86.90;;;;;;5113012;28;19968;-44
2023/06/16 01:19:39;;;;;;;;;;;15.40;87.90;;;;;;5112046;28;20333;-44
2023/06/16 01:22:24;;;;;;;;;;;15.40;88.70;;;;;;5112841;28;19907;-43
2023/06/16 01:24:53;;;;;;;;;;;15.40;88.50;;;;;;5111979;28;19919;-44
2023/06/16 01:27:21;;;;;;;;;;;15.40;88.80;;;;;;5112671;28;20290;-45
2023/06/16 01:29:48;;;;;;;;;;;15.30;89.40;;;;;;5112701;28;20006;-46
2023/06/16 01:32:16;;;;;;;;;;;15.20;89.00;;;;;;5112082;28;19961;-43
2023/06/16 01:34:42;;;;;;;;;;;15.20;89.30;;;;;;5112698;28;19908;-45
2023/06/16 01:37:08;;;;;;;;;;;15.20;89.50;;;;;;5112387;28;19980;-44
2023/06/16 01:39:34;;;;;;;;;;;15.10;89.80;;;;;;5111769;28;20092;-45
2023/06/16 01:42:00;;;;;;;;;;;15.10;90.10;;;;;;5112657;28;19954;-45
2023/06/16 01:44:29;;;;;;;;;;;15.00;90.00;;;;;;5112668;28;19965;-48
2023/06/16 01:46:55;;;;;;;;;;;15.00;90.70;;;;;;5111915;28;19931;-45
2023/06/16 01:49:21;;;;;;;;;;;15.00;90.70;;;;;;5112284;28;20374;-46
2023/06/16 01:51:47;;;;;;;;;;;14.90;91.30;;;;;;5112571;28;20282;-46
2023/06/16 01:54:12;;;;;;;;;;;14.90;90.90;;;;;;5111842;28;19914;-47
2023/06/16 01:56:37;;;;;;;;;;;14.90;90.80;;;;;;5112581;28;19908;-45
2023/06/16 01:59:03;;;;;;;;;;;14.90;90.90;;;;;;5112620;28;20007;-45
2023/06/16 02:01:29;;;;;;;;;;;14.80;91.40;;;;;;5112008;28;19919;-47
2023/06/16 02:04:24;;;;;;;;;;;14.90;91.10;;;;;;5101618;28;19928;-45
2023/06/16 02:07:11;;;;;;;;;;;14.80;90.80;;;;;;5073740;28;19973;-45
2023/06/16 02:09:38;;;;;;;;;;;14.70;91.50;;;;;;5099324;28;19912;-47
2023/06/16 02:12:05;;;;;;;;;;;14.70;91.20;;;;;;5116135;28;19908;-44
2023/06/16 02:14:33;;;;;;;;;;;14.60;91.50;;;;;;5115400;28;19943;-45
2023/06/16 02:16:59;;;;;;;;;;;14.60;91.90;;;;;;5116141;28;19940;-44
2023/06/16 02:19:28;;;;;;;;;;;14.50;91.70;;;;;;5115799;28;19965;-44
2023/06/16 02:21:57;;;;;;;;;;;14.40;92.30;;;;;;5115123;28;19929;-43
2023/06/16 02:24:23;;;;;;;;;;;14.40;92.40;;;;;;5115892;28;19916;-45
2023/06/16 02:26:48;;;;;;;;;;;14.40;92.30;;;;;;5115725;28;20289;-44
2023/06/16 02:29:14;;;;;;;;;;;14.40;92.80;;;;;;5114815;28;19915;-44
2023/06/16 02:31:39;;;;;;;;;;;14.40;93.40;;;;;;5115930;28;20006;-44
2023/06/16 02:34:05;;;;;;;;;;;14.40;93.70;;;;;;5115779;28;19907;-44
2023/06/16 02:36:30;;;;;;;;;;;14.40;93.20;;;;;;5114531;28;19980;-44
2023/06/16 02:38:56;;;;;;;;;;;14.40;92.80;;;;;;5115572;28;19915;-48
2023/06/16 02:41:21;;;;;;;;;;;14.30;92.70;;;;;;5115309;28;19912;-44
2023/06/16 02:43:47;;;;;;;;;;;14.30;92.80;;;;;;5114553;28;19922;-45
2023/06/16 02:46:12;;;;;;;;;;;14.20;93.00;;;;;;5115677;28;19907;-45
2023/06/16 02:48:38;;;;;;;;;;;14.20;93.10;;;;;;5115302;28;19929;-44
2023/06/16 02:51:03;;;;;;;;;;;14.10;93.20;;;;;;5114743;28;19918;-45
2023/06/16 02:53:29;;;;;;;;;;;14.10;93.50;;;;;;5115193;28;20282;-44
2023/06/16 02:55:55;;;;;;;;;;;14.10;93.50;;;;;;5106148;28;20011;-45
2023/06/16 02:58:22;;;;;;;;;;;14.00;93.50;;;;;;5094870;28;19915;-45
2023/06/16 03:00:47;;;;;;;;;;;14.00;93.60;;;;;;5094815;28;19908;-45
2023/06/16 03:03:13;;;;;;;;;;;13.90;93.40;;;;;;5093941;28;19923;-45
2023/06/16 03:05:38;;;;;;;;;;;13.90;93.80;;;;;;5100353;28;19915;-49
2023/06/16 03:08:04;;;;;;;;;;;13.90;94.20;;;;;;5115039;28;20366;-44
2023/06/16 03:10:30;;;;;;;;;;;13.90;94.20;;;;;;5113600;28;19923;-44
2023/06/16 03:12:55;;;;;;;;;;;13.90;94.50;;;;;;5114998;28;19908;-44
2023/06/16 03:15:25;;;;;;;;;;;13.90;94.50;;;;;;5114835;28;19960;-45
2023/06/16 03:17:51;;;;;;;;;;;13.90;94.60;;;;;;5112248;28;20346;-45
2023/06/16 03:20:16;;;;;;;;;;;13.90;95.20;;;;;;5114609;28;19999;-43
2023/06/16 03:22:42;;;;;;;;;;;13.90;95.60;;;;;;5114538;28;19968;-45
2023/06/16 03:25:08;;;;;;;;;;;13.90;95.40;;;;;;5113833;28;20388;-45
2023/06/16 03:27:33;;;;;;;;;;;14.00;95.40;;;;;;5114472;28;20362;-44
2023/06/16 03:29:59;;;;;;;;;;;14.00;95.70;;;;;;5103519;28;19966;-45
2023/06/16 03:32:24;;;;;;;;;;;14.00;95.60;;;;;;5093303;28;19908;-48
2023/06/16 03:34:50;;;;;;;;;;;14.00;95.40;;;;;;5094055;28;19916;-44
2023/06/16 03:37:16;;;;;;;;;;;14.00;95.00;;;;;;5093799;28;19927;-44
2023/06/16 03:39:41;;;;;;;;;;;13.90;95.00;;;;;;5111021;28;19919;-45
2023/06/16 03:42:07;;;;;;;;;;;13.90;95.20;;;;;;5114244;28;20330;-46
2023/06/16 03:44:33;;;;;;;;;;;13.90;95.50;;;;;;5114204;28;19953;-46
2023/06/16 03:46:58;;;;;;;;;;;13.80;95.80;;;;;;5113301;28;19953;-48
2023/06/16 03:49:24;;;;;;;;;;;13.80;95.60;;;;;;5114230;28;19908;-45
2023/06/16 03:51:49;;;;;;;;;;;13.80;95.80;;;;;;5114029;28;20655;-44
2023/06/16 03:54:17;;;;;;;;;;;13.80;95.80;;;;;;5113244;28;20006;-44
2023/06/16 03:56:43;;;;;;;;;;;13.80;96.00;;;;;;5113920;28;20299;-46
2023/06/16 03:59:08;;;;;;;;;;;13.90;96.40;;;;;;5112728;28;19918;-43
2023/06/16 04:01:36;;;;;;;;;;;14.00;96.80;;;;;;5114018;28;19908;-45
2023/06/16 04:04:02;;;;;;;;;;;14.00;97.10;;;;;;5107698;28;19916;-44
2023/06/16 04:06:28;;;;;;;;;;;14.10;97.40;;;;;;5092774;28;19916;-44
2023/06/16 04:08:56;;;;;;;;;;;14.20;98.10;;;;;;5103596;28;19912;-45
2023/06/16 04:11:22;;;;;;;;;;;14.40;98.70;;;;;;5113864;28;19998;-45
2023/06/16 04:13:48;;;;;;;;;;;14.50;98.70;;;;;;5112654;28;20386;-44
2023/06/16 04:16:14;;;;;;;;;;;14.60;99.00;;;;;;5113707;28;20298;-44
2023/06/16 04:18:39;;;;;;;;;;;14.70;99.40;;;;;;5113582;28;20448;-44
2023/06/16 04:21:05;;;;;;;;;;;14.70;99.70;;;;;;5112566;28;19922;-44
2023/06/16 04:23:30;;;;;;;;;;;14.80;99.90;;;;;;5113246;28;19916;-44
2023/06/16 04:25:56;;;;;;;;;;;14.90;99.90;;;;;;5104889;28;20324;-44
2023/06/16 04:28:22;;;;;;;;;;;15.00;99.90;;;;;;5097247;28;19919;-43
2023/06/16 04:30:49;;;;;;;;;;;15.00;99.90;;;;;;5097637;28;19915;-45
2023/06/16 04:33:14;;;;;;;;;;;15.10;99.80;;;;;;5113482;28;19954;-44
2023/06/16 04:35:40;;;;;;;;;;;15.10;99.90;;;;;;5106895;28;19915;-45
2023/06/16 04:38:06;;;;;;;;;;;15.10;99.90;;;;;;5099424;28;19922;-44
2023/06/16 04:40:32;;;;;;;;;;;15.10;99.90;;;;;;5109214;28;19996;-44
2023/06/16 04:42:57;;;;;;;;;;;15.10;99.50;;;;;;5092141;28;20010;-45
2023/06/16 04:45:22;;;;;;;;;;;15.10;99.30;;;;;;5092879;28;19930;-48
2023/06/16 04:47:50;;;;;;;;;;;15.00;99.90;;;;;;5092826;28;20309;-45
2023/06/16 04:50:16;;;;;;;;;;;15.10;99.90;;;;;;5092156;28;19916;-45
2023/06/16 04:52:42;;;;;;;;;;;15.10;99.90;;;;;;5092775;28;19909;-46
2023/06/16 04:55:07;;;;;;;;;;;15.10;99.90;;;;;;5092923;28;20355;-45
2023/06/16 04:57:36;;;;;;;;;;;15.10;99.90;;;;;;5091949;28;19958;-44
2023/06/16 05:00:05;;;;;;;;;;;15.10;99.90;;;;;;5092860;28;20011;-44
2023/06/16 05:02:30;;;;;;;;;;;15.10;99.90;;;;;;5073705;28;19920;-45
2023/06/16 05:04:56;;;;;;;;;;;15.20;99.90;;;;;;5092741;28;20049;-45
2023/06/16 05:07:22;;;;;;;;;;;15.30;99.90;;;;;;5111613;28;19908;-44
2023/06/16 05:09:47;;;;;;;;;;;15.30;99.90;;;;;;5111766;28;19912;-44
2023/06/16 05:12:13;;;;;;;;;;;15.40;99.90;;;;;;5113001;28;19916;-47
2023/06/16 05:14:38;;;;;;;;;;;15.40;99.90;;;;;;5112925;28;19915;-47
2023/06/16 05:17:04;;;;;;;;;;;15.50;99.90;;;;;;5112376;28;19908;-45
2023/06/16 05:19:29;;;;;;;;;;;15.60;99.90;;;;;;5112871;28;20359;-46
2023/06/16 05:21:55;;;;;;;;;;;15.60;99.90;;;;;;5112836;28;20283;-45
2023/06/16 05:24:20;;;;;;;;;;;15.70;99.90;;;;;;5112234;28;19916;-46
2023/06/16 05:26:46;;;;;;;;;;;15.70;99.90;;;;;;5112685;28;19912;-45
2023/06/16 05:29:11;;;;;;;;;;;15.80;99.90;;;;;;5112996;28;20000;-43
2023/06/16 05:31:37;;;;;;;;;;;15.80;99.90;;;;;;5107579;28;19907;-44
2023/06/16 05:34:02;;;;;;;;;;;15.90;99.90;;;;;;5106054;28;19919;-43
2023/06/16 05:36:34;;;;;;;;;;;16.00;99.90;;;;;;5110792;28;19988;-46
2023/06/16 05:39:00;;;;;;;;;;;16.00;99.90;;;;;;5105722;28;19919;-45
2023/06/16 05:41:27;;;;;;;;;;;16.10;99.90;;;;;;5111603;28;19907;-44
2023/06/16 05:43:53;;;;;;;;;;;16.10;99.90;;;;;;5116100;28;19920;-45
2023/06/16 05:46:19;;;;;;;;;;;16.20;99.90;;;;;;5114877;28;19908;-47
2023/06/16 05:48:44;;;;;;;;;;;16.30;99.90;;;;;;5115908;28;19919;-48
2023/06/16 05:51:10;;;;;;;;;;;16.30;99.90;;;;;;5109127;28;20365;-44
2023/06/16 05:53:36;;;;;;;;;;;16.40;99.90;;;;;;5114904;28;19999;-45
2023/06/16 05:56:01;;;;;;;;;;;16.50;99.90;;;;;;5115371;28;19912;-45
2023/06/16 05:58:26;;;;;;;;;;;16.50;99.90;;;;;;5116390;28;19915;-45
2023/06/16 06:00:52;;;;;;;;;;;16.50;99.90;;;;;;5115215;28;20266;-44
2023/06/16 06:03:17;;;;;;;;;;;16.70;99.90;;;;;;5116316;28;19923;-44
2023/06/16 06:05:43;;;;;;;;;;;16.70;99.90;;;;;;5114456;28;19914;-47
2023/06/16 06:08:08;;;;;;;;;;;16.80;99.90;;;;;;5097264;28;20286;-47
2023/06/16 06:10:34;;;;;;;;;;;16.80;99.90;;;;;;5116125;28;19907;-44
2023/06/16 06:13:03;;;;;;;;;;;17.00;99.90;;;;;;5115409;28;19916;-43
2023/06/16 06:15:28;;;;;;;;;;;17.00;99.90;;;;;;5106536;28;19908;-45
2023/06/16 06:17:54;;;;;;;;;;;17.10;99.90;;;;;;5096251;28;20386;-44
2023/06/16 06:20:19;;;;;;;;;;;17.10;99.90;;;;;;5110508;28;19951;-45
2023/06/16 06:22:45;;;;;;;;;;;17.20;99.90;;;;;;5108869;28;19920;-45
2023/06/16 06:25:13;;;;;;;;;;;17.30;99.90;;;;;;5115971;28;19990;-44
2023/06/16 06:27:41;;;;;;;;;;;17.30;99.90;;;;;;5100088;28;19909;-47
2023/06/16 06:30:07;;;;;;;;;;;17.40;99.90;;;;;;5097153;28;19912;-43
2023/06/16 06:32:33;;;;;;;;;;;17.50;99.90;;;;;;5110725;28;19960;-46
2023/06/16 06:34:58;;;;;;;;;;;17.50;99.90;;;;;;5096309;28;19966;-45
2023/06/16 06:37:30;;;;;;;;;;;17.60;99.90;;;;;;5110491;28;19919;-44
2023/06/16 06:39:56;;;;;;;;;;;17.70;99.90;;;;;;5097768;28;20326;-44
2023/06/16 06:42:22;;;;;;;;;;;17.80;99.90;;;;;;5103318;28;20423;-45
2023/06/16 06:44:47;;;;;;;;;;;17.80;99.90;;;;;;5099603;28;19960;-45
2023/06/16 06:47:13;;;;;;;;;;;17.90;99.90;;;;;;5095673;28;19994;-44
2023/06/16 06:49:39;;;;;;;;;;;18.00;99.90;;;;;;5114358;28;19912;-45
2023/06/16 06:52:05;;;;;;;;;;;18.10;99.90;;;;;;5105568;28;20374;-45
2023/06/16 06:54:31;;;;;;;;;;;18.20;99.90;;;;;;5105653;28;20117;-44
2023/06/16 06:56:56;;;;;;;;;;;18.20;99.90;;;;;;5095635;28;19912;-43
2023/06/16 06:59:21;;;;;;;;;;;18.30;99.90;;;;;;5100453;28;20004;-45
2023/06/16 07:01:47;;;;;;;;;;;18.40;99.90;;;;;;5103216;28;20359;-45
2023/06/16 07:04:13;;;;;;;;;;;18.40;99.90;;;;;;5093785;28;20310;-46
2023/06/16 07:06:38;;;;;;;;;;;18.50;99.90;;;;;;5100388;28;20006;-44
2023/06/16 07:09:03;;;;;;;;;;;18.60;99.90;;;;;;5113610;28;19963;-44
2023/06/16 07:11:29;;;;;;;;;;;18.80;99.90;;;;;;5114801;28;19907;-45
2023/06/16 07:13:54;;;;;;;;;;;18.80;99.90;;;;;;5113078;28;20367;-44
2023/06/16 07:16:20;;;;;;;;;;;18.90;99.90;;;;;;5113330;28;20310;-45
2023/06/16 07:18:45;;;;;;;;;;;19.00;99.70;;;;;;5108047;28;20278;-43
2023/06/16 07:21:11;;;;;;;;;;;19.10;99.50;;;;;;5105517;28;19919;-44
2023/06/16 07:23:36;;;;;;;;;;;19.10;99.40;;;;;;5113711;28;20401;-46
2023/06/16 07:26:02;;;;;;;;;;;19.20;99.00;;;;;;5114690;28;19908;-45
2023/06/16 07:28:28;;;;;;;;;;;19.30;98.90;;;;;;5103750;28;19918;-44
2023/06/16 07:30:54;;;;;;;;;;;19.40;98.70;;;;;;5113718;28;19912;-44
2023/06/16 07:33:20;;;;;;;;;;;19.40;98.70;;;;;;5114114;28;19908;-45
2023/06/16 07:35:46;;;;;;;;;;;19.60;99.20;;;;;;5114126;28;19911;-46
2023/06/16 07:38:11;;;;;;;;;;;19.60;98.70;;;;;;5113791;28;19915;-45
2023/06/16 07:40:37;;;;;;;;;;;19.70;98.10;;;;;;5114325;28;19912;-45
2023/06/16 07:43:02;;;;;;;;;;;19.70;97.70;;;;;;5114358;28;20392;-47
2023/06/16 07:45:31;;;;;;;;;;;19.80;96.90;;;;;;5113511;28;20400;-44
2023/06/16 07:47:56;;;;;;;;;;;19.90;97.10;;;;;;5113816;28;19965;-48
2023/06/16 07:50:22;;;;;;;;;;;20.00;97.60;;;;;;5113935;28;19908;-45
2023/06/16 07:52:47;;;;;;;;;;;20.00;97.30;;;;;;5113350;28;19908;-46
2023/06/16 07:55:14;;;;;;;;;;;20.10;96.70;;;;;;5114166;28;19908;-44
2023/06/16 07:57:40;;;;;;;;;;;20.20;96.50;;;;;;5114037;28;19908;-45
2023/06/16 08:00:13;;;;;;;;;;;20.30;96.20;;;;;;5113209;28;19911;-45
2023/06/16 08:02:39;;;;;;;;;;;20.30;95.80;;;;;;5113864;28;20055;-47
2023/06/16 08:05:04;;;;;;;;;;;20.40;95.70;;;;;;5113670;28;19954;-44
2023/06/16 08:07:30;;;;;;;;;;;20.40;96.00;;;;;;5112459;28;19943;-46
2023/06/16 08:09:55;;;;;;;;;;;20.50;95.80;;;;;;5113839;28;19960;-44
2023/06/16 08:12:21;;;;;;;;;;;20.60;95.70;;;;;;5113008;28;19908;-47
2023/06/16 08:14:46;;;;;;;;;;;20.60;94.60;;;;;;5113637;28;19915;-47
2023/06/16 08:17:12;;;;;;;;;;;20.70;95.00;;;;;;5113497;28;19934;-44
2023/06/16 08:19:37;;;;;;;;;;;20.80;94.30;;;;;;5112828;28;20296;-48
2023/06/16 08:22:04;;;;;;;;;;;20.90;94.40;;;;;;5113767;28;19914;-43
2023/06/16 08:24:30;;;;;;;;;;;21.00;94.60;;;;;;5113475;28;19915;-45
2023/06/16 08:26:56;;;;;;;;;;;21.00;94.20;;;;;;5112776;28;19915;-44
2023/06/16 08:29:21;;;;;;;;;;;21.10;94.20;;;;;;5112238;28;20255;-45
2023/06/16 08:31:46;;;;;;;;;;;21.20;93.20;;;;;;5099477;28;20002;-43
2023/06/16 08:34:12;;;;;;;;;;;21.30;93.50;;;;;;5097670;28;19908;-44
2023/06/16 08:36:38;;;;;;;;;;;21.40;92.50;;;;;;5093843;28;19974;-44
2023/06/16 08:39:07;;;;;;;;;;;21.50;92.60;;;;;;5114057;28;19915;-45
2023/06/16 08:41:34;;;;;;;;;;;21.50;92.60;;;;;;5113492;28;19908;-44
2023/06/16 08:44:01;;;;;;;;;;;21.60;92.90;;;;;;5113888;28;19927;-43
2023/06/16 08:46:27;;;;;;;;;;;21.70;92.90;;;;;;5113771;28;19912;-46
2023/06/16 08:48:52;;;;;;;;;;;21.80;92.80;;;;;;5112876;28;20006;-46
2023/06/16 08:51:21;;;;;;;;;;;21.90;92.40;;;;;;5114037;28;19915;-44
2023/06/16 08:53:47;;;;;;;;;;;21.90;92.10;;;;;;5113870;28;19919;-43
2023/06/16 08:56:17;;;;;;;;;;;22.00;91.90;;;;;;5112888;28;20323;-43
2023/06/16 08:58:43;;;;;;;;;;;22.00;92.20;;;;;;5113688;28;19939;-43
2023/06/16 09:01:09;;;;;;;;;;;22.10;92.50;;;;;;5114086;28;20339;-45
2023/06/16 09:03:35;;;;;;;;;;;22.20;92.40;;;;;;5112807;28;19924;-45
2023/06/16 09:06:01;;;;;;;;;;;22.30;92.70;;;;;;5113480;28;19918;-43
2023/06/16 09:08:26;;;;;;;;;;;22.40;92.60;;;;;;5113651;28;19915;-46
2023/06/16 09:10:54;;;;;;;;;;;22.40;92.10;;;;;;5113177;28;20278;-47
2023/06/16 09:13:20;;;;;;;;;;;22.40;92.10;;;;;;5113577;28;19929;-43
2023/06/16 09:15:47;;;;;;;;;;;22.60;91.50;;;;;;5112662;28;19908;-44
2023/06/16 09:18:14;;;;;;;;;;;22.60;92.30;;;;;;5115970;28;19911;-44
2023/06/16 09:20:40;;;;;;;;;;;22.70;91.90;;;;;;5117409;28;19908;-44
2023/06/16 09:23:08;;;;;;;;;;;22.80;92.20;;;;;;5106142;28;19916;-43
2023/06/16 09:25:34;;;;;;;;;;;22.90;91.20;;;;;;5116337;28;19912;-43
2023/06/16 09:28:04;;;;;;;;;;;22.90;90.60;;;;;;5117400;28;19918;-44
2023/06/16 09:30:30;;;;;;;;;;;23.00;90.30;;;;;;5116931;28;20273;-45
2023/06/16 09:32:57;;;;;;;;;;;23.00;90.90;;;;;;5117647;28;19930;-43
2023/06/16 09:35:23;;;;;;;;;;;23.10;91.20;;;;;;5117544;28;19911;-44
2023/06/16 09:37:50;;;;;;;;;;;23.10;90.80;;;;;;5116320;28;20299;-44
2023/06/16 09:40:16;;;;;;;;;;;23.20;90.80;;;;;;5117284;28;19914;-45
2023/06/16 09:42:43;;;;;;;;;;;23.30;86.20;;;;;;5117129;28;19953;-42
2023/06/16 09:45:09;;;;;;;;;;;23.30;87.90;;;;;;5116862;28;19975;-43
2023/06/16 09:47:38;;;;;;;;;;;23.50;88.00;;;;;;5117170;28;19908;-44
2023/06/16 09:50:05;;;;;;;;;;;23.50;82.10;;;;;;5117461;28;19915;-45
2023/06/16 09:52:32;;;;;;;;;;;23.50;82.30;;;;;;5116523;28;20309;-45
2023/06/16 09:54:58;;;;;;;;;;;23.50;83.30;;;;;;5116492;28;19954;-42
2023/06/16 09:57:23;;;;;;;;;;;23.60;82.40;;;;;;5117056;28;19947;-43
2023/06/16 09:59:49;;;;;;;;;;;23.70;83.00;;;;;;5116669;28;19912;-45
2023/06/16 10:02:14;;;;;;;;;;;23.70;82.10;;;;;;5117138;28;19915;-46
2023/06/16 10:04:41;;;;;;;;;;;23.80;82.30;;;;;;5116800;28;20347;-44
2023/06/16 10:07:07;;;;;;;;;;;23.70;80.60;;;;;;5116394;28;19907;-42
2023/06/16 10:09:37;;;;;;;;;;;23.80;81.20;;;;;;5116493;28;19911;-45
2023/06/16 10:12:03;;;;;;;;;;;23.80;81.20;;;;;;5116437;28;19943;-45
2023/06/16 10:14:31;;;;;;;;;;;23.90;78.90;;;;;;5116871;28;20398;-46
2023/06/16 10:16:58;;;;;;;;;;;23.90;78.70;;;;;;5116932;28;19917;-44
2023/06/16 10:19:24;;;;;;;;;;;24.00;78.50;;;;;;5116224;28;19908;-45
2023/06/16 10:21:50;;;;;;;;;;;24.00;76.50;;;;;;5116255;28;19907;-45
2023/06/16 10:24:16;;;;;;;;;;;24.00;76.50;;;;;;5116393;28;20376;-46
2023/06/16 10:26:42;;;;;;;;;;;24.10;76.30;;;;;;5115530;28;19938;-46
2023/06/16 10:29:08;;;;;;;;;;;24.20;76.60;;;;;;5115397;28;20315;-46
2023/06/16 10:31:33;;;;;;;;;;;24.20;71.40;;;;;;5116461;28;19908;-44
2023/06/16 10:33:59;;;;;;;;;;;24.30;71.60;;;;;;5116006;28;19999;-43
2023/06/16 10:36:31;;;;;;;;;;;24.40;72.90;;;;;;5116057;28;20297;-44
2023/06/16 10:38:58;;;;;;;;;;;24.50;68.20;;;;;;5116377;28;19908;-45
2023/06/16 10:41:24;;;;;;;;;;;24.60;69.80;;;;;;5116051;28;19915;-44
2023/06/16 10:43:49;;;;;;;;;;;24.70;70.30;;;;;;5116051;28;19920;-48
2023/06/16 10:46:16;;;;;;;;;;;24.70;62.90;;;;;;5116252;28;19943;-43
2023/06/16 10:48:56;;;;;;;;;;;24.80;68.00;;;;;;5115733;28;19934;-45
2023/06/16 10:51:43;;;;;;;;;;;24.80;67.80;;;;;;5111631;28;19927;-43
2023/06/16 10:54:09;;;;;;;;;;;24.80;68.40;;;;;;5101542;28;19955;-45
2023/06/16 10:56:53;;;;;;;;;;;24.80;68.30;;;;;;5107873;28;20365;-44
2023/06/16 10:59:18;;;;;;;;;;;24.90;66.60;;;;;;5097711;28;19919;-43
2023/06/16 11:01:46;;;;;;;;;;;25.00;64.30;;;;;;5109727;28;19912;-46
2023/06/16 11:04:14;;;;;;;;;;;25.10;65.80;;;;;;5111910;28;20358;-44
2023/06/16 11:06:58;;;;;;;;;;;25.20;67.50;;;;;;5115355;28;19915;-45
2023/06/16 11:09:28;;;;;;;;;;;25.20;66.00;;;;;;5110393;28;19912;-44
2023/06/16 11:11:56;;;;;;;;;;;25.20;66.50;;;;;;5115214;28;19908;-45
2023/06/16 11:14:22;;;;;;;;;;;25.20;67.10;;;;;;5115494;28;19960;-44
2023/06/16 11:16:48;;;;;;;;;;;25.20;67.40;;;;;;5114446;28;19915;-43
2023/06/16 11:19:16;;;;;;;;;;;25.30;67.20;;;;;;5114669;28;19920;-46
2023/06/16 11:21:42;;;;;;;;;;;25.40;67.70;;;;;;5109801;28;20269;-43
2023/06/16 11:24:11;;;;;;;;;;;25.40;66.40;;;;;;5108676;28;19927;-43
2023/06/16 11:26:37;;;;;;;;;;;25.50;68.10;;;;;;5110353;28;19919;-43
2023/06/16 11:29:05;;;;;;;;;;;25.50;66.70;;;;;;5105801;28;19912;-44
2023/06/16 11:31:35;;;;;;;;;;;25.50;66.30;;;;;;5114157;28;19912;-45
2023/06/16 11:34:02;;;;;;;;;;;25.50;65.80;;;;;;5115682;28;20020;-43
2023/06/16 11:36:27;;;;;;;;;;;25.60;66.90;;;;;;5114035;28;19927;-44
2023/06/16 11:38:55;;;;;;;;;;;25.60;65.30;;;;;;5114894;28;19912;-43
2023/06/16 11:41:25;;;;;;;;;;;25.60;65.70;;;;;;5114955;28;19961;-45
2023/06/16 11:43:53;;;;;;;;;;;25.60;65.70;;;;;;5113813;28;20297;-43
2023/06/16 11:46:22;;;;;;;;;;;25.70;63.70;;;;;;5114988;28;20358;-45
2023/06/16 11:48:48;;;;;;;;;;;25.80;65.30;;;;;;5114871;28;19969;-45
2023/06/16 11:51:14;;;;;;;;;;;25.80;64.60;;;;;;5114478;28;19908;-45
2023/06/16 11:53:40;;;;;;;;;;;25.90;64.10;;;;;;5114265;28;20074;-43
2023/06/16 11:56:12;;;;;;;;;;;25.90;63.80;;;;;;5114180;28;19907;-44
2023/06/16 11:58:38;;;;;;;;;;;25.90;64.00;;;;;;5113167;28;19907;-48
2023/06/16 12:01:05;;;;;;;;;;;26.00;61.70;;;;;;5114111;28;20006;-45
2023/06/16 12:03:33;;;;;;;;;;;26.00;62.60;;;;;;5113797;28;19941;-45
2023/06/16 12:05:59;;;;;;;;;;;26.00;62.90;;;;;;5112366;28;19912;-43
2023/06/16 12:08:40;;;;;;;;;;;26.10;61.80;;;;;;5113593;28;19912;-45
2023/06/16 12:11:06;;;;;;;;;;;26.10;62.20;;;;;;5113340;28;19915;-43
2023/06/16 12:13:34;;;;;;;;;;;26.20;62.80;;;;;;5112222;28;20350;-46
2023/06/16 12:16:00;;;;;;;;;;;26.20;59.20;;;;;;5113518;28;19940;-44
2023/06/16 12:18:25;;;;;;;;;;;26.20;60.80;;;;;;5106169;28;19912;-44
2023/06/16 12:20:51;;;;;;;;;;;26.20;62.50;;;;;;5102693;28;19931;-43
2023/06/16 12:23:17;;;;;;;;;;;26.20;62.90;;;;;;5112054;28;19928;-43
2023/06/16 12:25:43;;;;;;;;;;;26.30;61.60;;;;;;5112062;28;19912;-46
2023/06/16 12:28:08;;;;;;;;;;;26.40;61.60;;;;;;5112956;28;20385;-44
2023/06/16 12:30:34;;;;;;;;;;;26.50;61.20;;;;;;5111883;28;19915;-44
2023/06/16 12:33:09;;;;;;;;;;;26.70;59.50;;;;;;5112532;28;20219;-46
2023/06/16 12:35:35;;;;;;;;;;;26.80;57.80;;;;;;5113308;28;19908;-45
2023/06/16 12:38:01;;;;;;;;;;;27.00;59.50;;;;;;5112914;28;19927;-44
2023/06/16 12:40:31;;;;;;;;;;;27.10;56.80;;;;;;5112576;28;19908;-44
2023/06/16 12:43:16;;;;;;;;;;;27.20;57.70;;;;;;5112974;28;20328;-46
2023/06/16 12:45:42;;;;;;;;;;;27.30;57.70;;;;;;5112894;28;19965;-44
2023/06/16 12:48:07;;;;;;;;;;;27.50;57.40;;;;;;5112524;28;20324;-44
2023/06/16 12:50:33;;;;;;;;;;;27.50;54.60;;;;;;5113030;28;19914;-45
2023/06/16 12:52:58;;;;;;;;;;;27.30;56.00;;;;;;5112489;28;19930;-44
2023/06/16 12:55:24;;;;;;;;;;;27.40;57.50;;;;;;5112295;28;19998;-43
2023/06/16 12:57:50;;;;;;;;;;;27.60;56.90;;;;;;5109939;28;19912;-45
2023/06/16 13:00:16;;;;;;;;;;;27.80;58.10;;;;;;5102431;28;19957;-45
2023/06/16 13:02:42;;;;;;;;;;;28.20;57.50;;;;;;5105826;28;19932;-44
2023/06/16 13:05:08;;;;;;;;;;;28.50;55.80;;;;;;5105945;28;20373;-46
2023/06/16 13:07:33;;;;;;;;;;;28.80;54.90;;;;;;5103954;28;19912;-45
2023/06/16 13:09:59;;;;;;;;;;;29.00;56.30;;;;;;5110491;28;19994;-45
2023/06/16 13:12:24;;;;;;;;;;;29.10;54.80;;;;;;5103484;28;20406;-43
2023/06/16 13:14:50;;;;;;;;;;;29.40;56.80;;;;;;5111366;28;19908;-44
2023/06/16 13:17:16;;;;;;;;;;;29.50;54.40;;;;;;5112370;28;19912;-44
2023/06/16 13:19:41;;;;;;;;;;;29.70;54.80;;;;;;5106199;28;19923;-45
2023/06/16 13:22:07;;;;;;;;;;;29.80;53.90;;;;;;5091887;28;19949;-44
2023/06/16 13:24:33;;;;;;;;;;;29.90;53.40;;;;;;5095598;28;19958;-44
2023/06/16 13:26:58;;;;;;;;;;;30.00;53.00;;;;;;5107133;28;20269;-46
2023/06/16 13:29:26;;;;;;;;;;;30.20;53.30;;;;;;5113042;28;19927;-43
2023/06/16 13:31:52;;;;;;;;;;;30.40;53.10;;;;;;5113509;28;20366;-44
2023/06/16 13:34:17;;;;;;;;;;;30.50;52.70;;;;;;5113690;28;19907;-44
2023/06/16 13:36:43;;;;;;;;;;;30.60;53.30;;;;;;5112732;28;20362;-45
2023/06/16 13:39:09;;;;;;;;;;;30.80;51.10;;;;;;5110060;28;19927;-44
2023/06/16 13:41:34;;;;;;;;;;;31.10;50.90;;;;;;5112998;28;19912;-49
2023/06/16 13:44:00;;;;;;;;;;;31.10;50.40;;;;;;5111874;28;20381;-43
2023/06/16 13:46:25;;;;;;;;;;;31.20;51.50;;;;;;5104249;28;19966;-45
2023/06/16 13:48:51;;;;;;;;;;;31.30;50.20;;;;;;5112433;28;19922;-45
2023/06/16 13:51:16;;;;;;;;;;;31.30;50.80;;;;;;5111266;28;19911;-44
2023/06/16 13:53:45;;;;;;;;;;;31.30;51.10;;;;;;5112922;28;19919;-44
2023/06/16 13:56:11;;;;;;;;;;;31.50;50.60;;;;;;5113222;28;20015;-44
2023/06/16 13:58:37;;;;;;;;;;;31.50;50.70;;;;;;5104891;28;20006;-44
2023/06/16 14:01:03;;;;;;;;;;;31.60;51.00;;;;;;5112703;28;19915;-44
2023/06/16 14:03:29;;;;;;;;;;;31.60;50.00;;;;;;5112141;28;19963;-44
2023/06/16 14:05:55;;;;;;;;;;;31.70;50.20;;;;;;5108514;28;20389;-45
2023/06/16 14:08:21;;;;;;;;;;;31.80;49.80;;;;;;5110295;28;19916;-44
2023/06/16 14:10:47;;;;;;;;;;;31.80;49.40;;;;;;5115239;28;19907;-45
2023/06/16 14:13:13;;;;;;;;;;;31.80;49.20;;;;;;5115556;28;20278;-45